createdAt,value
2023-04-08T00:01:53.280Z,100600.50
2023-04-08T00:06:56.382Z,100593.53
2023-04-08T00:11:59.237Z,100602.06
2023-04-08T00:17:01.914Z,100589.94
2023-04-08T00:22:04.773Z,100586.22
2023-04-08T00:27:07.393Z,100591.41
2023-04-08T00:32:10.318Z,100594.78
2023-04-08T00:37:13.520Z,100588.38
2023-04-08T00:42:16.261Z,100588.25
2023-04-08T00:47:18.942Z,100594.19
2023-04-08T00:52:21.545Z,100600.09
2023-04-08T00:57:24.175Z,100594.75
2023-04-08T01:02:39.167Z,100597.66
2023-04-08T01:07:47.196Z,100589.50
2023-04-08T01:12:55.737Z,100596.94
2023-04-08T01:18:00.732Z,100599.44
2023-04-08T01:23:23.302Z,100602.97
2023-04-08T01:28:29.645Z,100601.16
2023-04-08T01:33:36.602Z,100587.91
2023-04-08T01:38:40.067Z,100602.13
2023-04-08T01:43:45.031Z,100591.44
2023-04-08T01:48:49.040Z,100596.44
2023-04-08T01:53:51.930Z,100604.53
2023-04-08T01:58:58.938Z,100596.97
2023-04-08T02:04:03.755Z,100609.81
2023-04-08T02:09:06.445Z,100608.03
2023-04-08T02:14:09.030Z,100602.81
2023-04-08T02:19:20.268Z,100556.63
2023-04-08T02:24:23.044Z,100608.59
2023-04-08T02:29:29.458Z,100607.69
2023-04-08T02:34:32.668Z,100613.72
2023-04-08T02:39:36.894Z,100593.03
2023-04-08T02:44:39.553Z,100613.16
2023-04-08T02:49:42.118Z,100613.22
2023-04-08T02:54:44.707Z,100620.44
2023-04-08T02:59:47.257Z,100617.63
2023-04-08T03:04:49.886Z,100612.63
2023-04-08T03:09:52.910Z,100619.25
2023-04-08T03:14:55.578Z,100619.59
2023-04-08T03:19:58.528Z,100621.84
2023-04-08T03:25:01.161Z,100602.81
2023-04-08T03:30:05.921Z,100625.03
2023-04-08T03:35:09.095Z,100623.84
2023-04-08T03:40:12.286Z,100610.53
2023-04-08T03:45:14.959Z,100624.75
2023-04-08T03:50:17.593Z,100617.06
2023-04-08T03:55:20.280Z,100620.69
2023-04-08T04:00:23.075Z,100614.13
2023-04-08T04:05:26.432Z,100596.41
2023-04-08T04:10:29.127Z,100623.44
2023-04-08T04:15:31.865Z,100627.34
2023-04-08T04:20:34.515Z,100634.91
2023-04-08T04:25:37.165Z,100611.31
2023-04-08T04:30:40.416Z,100600.31
2023-04-08T04:35:43.155Z,100637.94
2023-04-08T04:40:46.225Z,100637.09
2023-04-08T04:45:48.872Z,100633.44
2023-04-08T04:50:56.153Z,100606.09
2023-04-08T04:56:01.369Z,100634.78
2023-04-08T05:01:03.981Z,100635.09
2023-04-08T05:06:07.189Z,100642.44
2023-04-08T05:11:11.398Z,100640.13
2023-04-08T05:16:14.072Z,100653.19
2023-04-08T05:21:16.684Z,100642.94
2023-04-08T05:26:21.869Z,100653.72
2023-04-08T05:31:24.910Z,100648.22
2023-04-08T05:36:28.163Z,100663.19
2023-04-08T05:41:30.994Z,100655.66
2023-04-08T05:46:33.670Z,100667.19
2023-04-08T05:51:36.242Z,100658.50
2023-04-08T05:56:39.114Z,100661.25
2023-04-08T06:01:41.895Z,100663.41
2023-04-08T06:06:44.673Z,100650.06
2023-04-08T06:11:49.367Z,100659.81
2023-04-08T06:16:54.874Z,100667.34
2023-04-08T06:21:59.168Z,100642.66
2023-04-08T06:27:03.448Z,100658.31
2023-04-08T06:32:06.670Z,100661.19
2023-04-08T06:37:09.623Z,100647.50
2023-04-08T06:42:12.451Z,100652.81
2023-04-08T06:47:34.940Z,100639.06
2023-04-08T06:52:37.564Z,100647.78
2023-04-08T06:57:40.168Z,100655.13
2023-04-08T07:02:42.933Z,100651.91
2023-04-08T07:07:45.530Z,100654.41
2023-04-08T07:12:48.479Z,100650.88
2023-04-08T07:17:51.837Z,100650.97
2023-04-08T07:22:54.460Z,100645.44
2023-04-08T07:27:57.279Z,100646.41
2023-04-08T07:33:01.066Z,100649.91
2023-04-08T07:38:04.231Z,100631.88
2023-04-08T07:43:06.930Z,100627.63
2023-04-08T07:48:09.734Z,100609.38
2023-04-08T07:53:12.417Z,100629.53
2023-04-08T07:58:15.009Z,100618.31
2023-04-08T08:03:17.749Z,100638.28
2023-04-08T08:08:20.405Z,100640.88
2023-04-08T08:13:23.005Z,100636.44
2023-04-08T08:18:25.611Z,100630.53
2023-04-08T08:23:28.166Z,100613.28
2023-04-08T08:28:30.811Z,100622.72
2023-04-08T08:33:34.126Z,100625.38
2023-04-08T08:38:36.764Z,100625.34
2023-04-08T08:43:39.568Z,100612.34
2023-04-08T08:48:42.202Z,100614.06
2023-04-08T08:53:45.774Z,100587.28
2023-04-08T08:58:49.265Z,100602.03
2023-04-08T09:04:25.027Z,100609.78
2023-04-08T09:09:27.695Z,100591.50
2023-04-08T09:14:30.472Z,100620.84
2023-04-08T09:19:33.017Z,100605.22
2023-04-08T09:24:37.292Z,100592.94
2023-04-08T09:29:41.184Z,100594.88
2023-04-08T09:34:43.775Z,100582.00
2023-04-08T09:39:46.344Z,100590.47
2023-04-08T09:44:49.040Z,100595.72
2023-04-08T09:49:58.605Z,100603.53
2023-04-08T09:55:09.310Z,100602.53
2023-04-08T10:00:15.143Z,100592.75
2023-04-08T10:05:19.400Z,100598.28
2023-04-08T10:10:22.645Z,100591.50
2023-04-08T10:15:32.680Z,100586.19
2023-04-08T10:20:35.969Z,100581.16
2023-04-08T10:25:39.500Z,100579.28
2023-04-08T10:30:48.939Z,100575.75
2023-04-08T10:35:59.646Z,100579.03
2023-04-08T10:41:02.812Z,100578.72
2023-04-08T10:46:05.704Z,100575.94
2023-04-08T10:51:08.315Z,100574.78
2023-04-08T10:56:17.011Z,100563.94
2023-04-08T11:01:20.247Z,100557.81
2023-04-08T11:06:23.563Z,100552.44
2023-04-08T11:11:29.602Z,100550.38
2023-04-08T11:16:32.802Z,100544.78
2023-04-08T11:21:37.682Z,100543.75
2023-04-08T11:26:41.081Z,100534.16
2023-04-08T11:31:44.473Z,100502.84
2023-04-08T11:36:47.310Z,100526.78
2023-04-08T11:41:50.270Z,100517.91
2023-04-08T11:46:57.411Z,100521.28
2023-04-08T11:52:00.572Z,100519.91
2023-04-08T11:57:03.681Z,100513.66
2023-04-08T12:02:06.451Z,100497.53
2023-04-08T12:07:10.883Z,100499.25
2023-04-08T12:12:13.542Z,100501.22
2023-04-08T12:17:16.414Z,100498.50
2023-04-08T12:22:19.022Z,100498.47
2023-04-08T12:27:21.602Z,100486.13
2023-04-08T12:32:25.552Z,100485.38
2023-04-08T12:37:28.684Z,100492.47
2023-04-08T12:42:31.758Z,100482.16
2023-04-08T12:47:34.471Z,100470.38
2023-04-08T12:52:37.203Z,100477.72
2023-04-08T12:57:39.906Z,100472.94
2023-04-08T13:02:42.837Z,100461.19
2023-04-08T13:07:46.273Z,100443.59
2023-04-08T13:12:48.958Z,100465.25
2023-04-08T13:17:51.772Z,100457.25
2023-04-08T13:22:54.476Z,100434.31
2023-04-08T13:27:58.598Z,100439.38
2023-04-08T13:33:01.524Z,100434.25
2023-04-08T13:38:04.247Z,100406.59
2023-04-08T13:43:06.907Z,100434.00
2023-04-08T13:48:09.697Z,100433.75
2023-04-08T13:53:12.835Z,100427.13
2023-04-08T13:58:23.424Z,100434.13
2023-04-08T14:03:26.791Z,100419.31
2023-04-08T14:08:29.364Z,100427.22
2023-04-08T14:13:32.505Z,100420.56
2023-04-08T14:18:35.131Z,100417.50
2023-04-08T14:23:37.701Z,100417.56
2023-04-08T14:28:40.520Z,100378.59
2023-04-08T14:33:43.371Z,100414.94
2023-04-08T14:38:46.208Z,100413.22
2023-04-08T14:43:49.155Z,100416.56
2023-04-08T14:48:51.887Z,100413.03
2023-04-08T14:53:54.529Z,100413.97
2023-04-08T14:58:57.130Z,100396.00
2023-04-08T15:04:00.183Z,100392.69
2023-04-08T15:09:03.777Z,100402.50
2023-04-08T15:14:06.461Z,100405.34
2023-04-08T15:19:09.270Z,100407.47
2023-04-08T15:24:12.813Z,100393.44
2023-04-08T15:29:15.651Z,100400.31
2023-04-08T15:34:18.521Z,100337.41
2023-04-08T15:39:23.938Z,100392.78
2023-04-08T15:44:26.602Z,100391.13
2023-04-08T15:49:29.179Z,100375.59
2023-04-08T15:54:33.615Z,100399.88
2023-04-08T15:59:36.848Z,100406.84
2023-04-08T16:04:39.589Z,100413.81
2023-04-08T16:09:42.365Z,100411.25
2023-04-08T16:14:46.487Z,100410.50
2023-04-08T16:19:51.807Z,100421.00
2023-04-08T16:24:54.457Z,100418.44
2023-04-08T16:29:57.615Z,100406.41
2023-04-08T16:35:00.421Z,100422.91
2023-04-08T16:40:03.868Z,100429.03
2023-04-08T16:45:07.084Z,100436.81
2023-04-08T16:50:09.966Z,100442.06
2023-04-08T16:55:14.512Z,100439.50
2023-04-08T17:00:19.652Z,100444.69
2023-04-08T17:05:23.668Z,100452.50
2023-04-08T17:10:26.359Z,100450.72
2023-04-08T17:15:28.929Z,100458.53
2023-04-08T17:20:31.633Z,100453.34
2023-04-08T17:25:35.554Z,100428.28
2023-04-08T17:30:39.786Z,100449.88
2023-04-08T17:35:42.697Z,100457.63
2023-04-08T17:40:46.555Z,100455.00
2023-04-08T17:45:50.622Z,100424.75
2023-04-08T17:51:02.880Z,100456.72
2023-04-08T17:56:06.354Z,100466.22
2023-04-08T18:01:08.999Z,100469.66
2023-04-08T18:06:11.647Z,100442.84
2023-04-08T18:11:14.424Z,100447.13
2023-04-08T18:16:18.956Z,100441.94
2023-04-08T18:21:22.237Z,100458.31
2023-04-08T18:26:25.161Z,100458.28
2023-04-08T18:31:27.888Z,100459.09
2023-04-08T18:36:30.591Z,100453.88
2023-04-08T18:41:33.238Z,100462.44
2023-04-08T18:46:36.177Z,100458.91
2023-04-08T18:51:42.164Z,100455.47
2023-04-08T18:56:49.463Z,100474.44
2023-04-08T19:01:52.302Z,100471.72
2023-04-08T19:06:55.183Z,100465.66
2023-04-08T19:11:57.911Z,100470.78
2023-04-08T19:17:01.185Z,100460.44
2023-04-08T19:22:05.972Z,100473.28
2023-04-08T19:27:09.162Z,100471.44
2023-04-08T19:32:12.661Z,100472.31
2023-04-08T19:37:15.538Z,100463.66
2023-04-08T19:42:19.366Z,100473.94
2023-04-08T19:47:22.213Z,100467.97
2023-04-08T19:52:25.114Z,100474.84
2023-04-08T19:57:28.055Z,100478.22
2023-04-08T20:02:31.545Z,100474.66
2023-04-08T20:07:34.235Z,100486.59
2023-04-08T20:12:36.846Z,100481.25
2023-04-08T20:17:39.510Z,100474.28
2023-04-08T20:22:42.135Z,100475.03
2023-04-08T20:27:44.800Z,100473.13
2023-04-08T20:32:47.553Z,100484.25
2023-04-08T20:37:50.325Z,100471.22
2023-04-08T20:42:52.936Z,100481.66
2023-04-08T20:47:55.858Z,100483.31
2023-04-08T20:52:59.068Z,100480.84
2023-04-08T20:58:05.838Z,100485.16
2023-04-08T21:03:08.654Z,100480.75
2023-04-08T21:08:11.425Z,100483.25
2023-04-08T21:13:14.063Z,100482.34
2023-04-08T21:18:16.709Z,100486.69
2023-04-08T21:23:19.285Z,100478.03
2023-04-08T21:28:22.135Z,100478.91
2023-04-08T21:33:24.729Z,100485.78
2023-04-08T21:38:27.304Z,100483.19
2023-04-08T21:43:30.019Z,100476.25
2023-04-08T21:48:32.751Z,100483.97
2023-04-08T21:53:35.478Z,100476.19
2023-04-08T21:58:38.047Z,100483.00
2023-04-08T22:03:40.719Z,100462.97
2023-04-08T22:08:43.332Z,100483.78
2023-04-08T22:13:46.040Z,100489.69
2023-04-08T22:18:48.629Z,100492.22
2023-04-08T22:23:51.525Z,100486.06
2023-04-08T22:28:54.894Z,100488.66
2023-04-08T22:33:57.712Z,100495.47
2023-04-08T22:39:00.418Z,100492.94
2023-04-08T22:44:03.120Z,100474.69
2023-04-08T22:49:05.873Z,100494.50
2023-04-08T22:54:08.582Z,100495.25
2023-04-08T22:59:11.230Z,100483.28
2023-04-08T23:04:13.929Z,100497.81
2023-04-08T23:09:16.630Z,100479.47
2023-04-08T23:14:19.231Z,100490.63
2023-04-08T23:19:21.908Z,100486.25
2023-04-08T23:24:24.449Z,100497.41
2023-04-08T23:29:27.181Z,100499.88
2023-04-08T23:34:29.772Z,100500.66
2023-04-08T23:39:32.485Z,100498.88
2023-04-08T23:44:35.090Z,100480.75
2023-04-08T23:49:37.639Z,100496.25
2023-04-08T23:54:40.373Z,100504.88
2023-04-08T23:59:42.966Z,100501.47
